Vermoegen Hamburg — DNLO — position and weather

sailwx.info

Track history (hours):
 
Tides and Currents Weather Stations Pressure Air Temp Water Temp Dewpoint Dewpoint Depression Visibility Wind Speed Wind Dir Waves Ship Positions

Vermoegen Hamburg

Last reported at 2018-May-09 21:26 UTC. Time now 2018-Jun-19 15:45 UTC.
Position N 17°38' W 061°43'.
Warning: this ship's position is 40 days out of date.

Length 16 m.

Type: Sailing vessel. MMSI: 211140670.

Date/timePositionNaut miles runAvg speedWind from/ knotsBaromVisibWave heightAir tempDewpointWater temp
2018-May-09 21:26N 17°38' W 061°43'4 9.4
2018-May-09 21:00N 17°34' W 061°42'4 8.2
2018-May-09 20:30N 17°29' W 061°42'5 9.5
2018-May-09 20:00N 17°25' W 061°42'5 9.5
2018-May-09 19:29N 17°20' W 061°41'5 9.3
2018-May-09 19:00N 17°15' W 061°41'5 9.5
2018-May-09 18:29N 17°11' W 061°40'5 9.5
2018-May-09 17:58N 17°06' W 061°39'4 8.1
2018-May-09 17:30N 17°02' W 061°40'3 5.6
2018-May-09 17:00N 17°00' W 061°42'3 5.7
2018-May-09 16:30N 16°59' W 061°45'1 1.4
2018-May-09 16:00N 16°60' W 061°46'1 1.5
2018-May-09 15:30N 16°59' W 061°45'1 2.3
2018-May-09 15:00N 17°00' W 061°46'0 0.2
2018-May-09 14:30N 17°00' W 061°46'0 0.0
2018-May-09 14:00N 17°00' W 061°46'0 0.0
2018-May-09 13:30N 17°00' W 061°46'0 0.0
2018-May-09 13:00N 17°00' W 061°46'0 0.0
2018-May-09 12:28N 17°00' W 061°46'0 0.0
2018-May-09 11:58N 17°00' W 061°46'0 0.0
2018-May-09 11:28N 17°00' W 061°46'0 0.0
2018-May-09 10:58N 17°00' W 061°46'0 0.0
2018-May-09 10:28N 17°00' W 061°46'0 0.0
2018-May-09 09:58N 17°00' W 061°46'0 0.0
2018-May-09 09:28N 17°00' W 061°46'0 0.0
2018-May-09 08:58N 17°00' W 061°46'0 0.0
2018-May-09 08:28N 17°00' W 061°46'0 0.0
2018-May-09 08:00N 17°00' W 061°46'0 0.0
2018-May-09 07:30N 17°00' W 061°46'0 0.0
2018-May-09 07:00N 17°00' W 061°46'0 0.0
2018-May-09 06:30N 17°00' W 061°46'0 0.0
2018-May-09 06:00N 17°00' W 061°46'0 0.0
2018-May-09 05:30N 17°00' W 061°46'0 0.0
2018-May-09 05:00N 17°00' W 061°46'0 0.0
2018-May-09 04:30N 17°00' W 061°46'0 0.0
2018-May-09 04:00N 17°00' W 061°46'0 0.0
2018-May-09 03:30N 17°00' W 061°46'0 0.0
2018-May-09 03:00N 17°00' W 061°46'0 0.0
2018-May-09 02:30N 17°00' W 061°46'0 0.0
2018-May-09 02:00N 17°00' W 061°46'0 0.0
2018-May-09 01:30N 17°00' W 061°46'0 0.0
2018-May-09 01:00N 17°00' W 061°46'0 0.0
2018-May-09 00:30N 17°00' W 061°46'0 0.0
2018-May-09 00:00N 17°00' W 061°46'0 0.0
2018-May-08 23:30N 17°00' W 061°46'0 0.0
2018-May-08 23:00N 17°00' W 061°46'0 0.0
2018-May-08 22:30N 17°00' W 061°46'0 0.0
2018-May-08 22:00N 17°00' W 061°46'0 0.0
2018-May-08 21:30N 17°00' W 061°46'0 0.0
2018-May-08 21:00N 17°00' W 061°46'0 0.0
2018-May-08 20:30N 17°00' W 061°46'0 0.0
2018-May-08 20:00N 17°00' W 061°46'0 0.0
2018-May-08 19:30N 17°00' W 061°46'0 0.0
2018-May-08 19:00N 17°00' W 061°46'0 0.0
2018-May-08 18:30N 17°00' W 061°46'0 0.0
2018-May-08 18:00N 17°00' W 061°46'0 0.0
2018-May-08 17:30N 17°00' W 061°46'0 0.0
2018-May-08 17:00N 17°00' W 061°46'0 0.0
2018-May-08 16:28N 17°00' W 061°46'0 0.0
2018-May-08 15:58N 17°00' W 061°46'0 0.0
2018-May-08 15:30N 17°00' W 061°46'0 0.0
2018-May-08 14:58N 17°00' W 061°46'0 0.0
2018-May-08 00:23N 17°00' W 061°46'0 0.0
2018-May-07 23:59N 17°00' W 061°46'0 0.2
2018-May-07 23:29N 17°01' W 061°46'1 2.2
2018-May-07 23:00N 16°59' W 061°46'5 9.4
2018-May-07 22:30N 16°55' W 061°47'5 9.2
2018-May-07 22:00N 16°50' W 061°48'5 9.8
2018-May-07 21:30N 16°46' W 061°49'5 9.7
2018-May-07 21:00N 16°41' W 061°51'5 9.7
2018-May-07 20:30N 16°36' W 061°51'510.0
2018-May-07 19:58N 16°31' W 061°52'4 8.3
2018-May-07 19:30N 16°27' W 061°52'130 5.4
2018-May-06 19:37N 14°27' W 061°01'1 6.6
2018-May-06 19:28N 14°27' W 061°00'3 5.9
2018-May-06 18:59N 14°27' W 060°57'3 4.6
2018-May-06 18:25N 14°27' W 060°55'0 0.6
2018-May-06 17:57N 14°27' W 060°54'3 3.1
2018-May-06 17:05N 14°28' W 060°52'0 0.0
2018-May-06 15:56N 14°28' W 060°52'0 0.0
2018-May-05 20:54N 14°28' W 060°52'0 0.0
2018-May-05 20:30N 14°28' W 060°52'0 0.0
2018-May-05 20:00N 14°28' W 060°52'0 0.0
2018-May-05 19:30N 14°28' W 060°52'0 0.0
2018-May-05 19:00N 14°28' W 060°52'0 0.0
2018-May-05 18:30N 14°28' W 060°52'0 0.0
2018-May-05 18:00N 14°28' W 060°52'0 0.2
2018-May-05 17:30N 14°28' W 060°52'0 0.1
2018-May-05 16:58N 14°28' W 060°52'0 0.0
2018-May-05 16:28N 14°28' W 060°52'0 0.0
2018-May-05 15:58N 14°28' W 060°52'0 0.0
2018-May-05 15:30N 14°28' W 060°52'0 0.0
2018-May-05 15:00N 14°28' W 060°52'0 0.0
2018-May-05 14:30N 14°28' W 060°52'0 0.0
2018-May-05 14:00N 14°28' W 060°52'0 0.0
2018-May-05 13:30N 14°28' W 060°52'0 0.0
2018-May-05 13:00N 14°28' W 060°52'0 0.0
2018-May-05 12:30N 14°28' W 060°52'0 0.0
2018-May-05 11:59N 14°28' W 060°52'0 0.0
2018-May-05 11:29N 14°28' W 060°52'0 0.0
2018-May-05 10:59N 14°28' W 060°52'0 0.0
2018-May-05 10:29N 14°28' W 060°52'0 0.0
2018-May-05 09:59N 14°28' W 060°52'0 0.0
2018-May-05 09:29N 14°28' W 060°52'0 0.0
2018-May-05 08:59N 14°28' W 060°52'0 0.0
2018-May-05 08:29N 14°28' W 060°52'0 0.0
2018-May-05 07:59N 14°28' W 060°52'0 0.0
2018-May-05 07:29N 14°28' W 060°52'0 0.0
2018-May-05 06:59N 14°28' W 060°52'0 0.0
2018-May-05 06:29N 14°28' W 060°52'0 0.0
2018-May-05 05:59N 14°28' W 060°52'0 0.0
2018-May-05 05:29N 14°28' W 060°52'0 0.0
2018-May-05 04:59N 14°28' W 060°52'0 0.0
2018-May-05 04:29N 14°28' W 060°52'0 0.0
2018-May-05 03:59N 14°28' W 060°52'0 0.0
2018-May-05 03:29N 14°28' W 060°52'0 0.0
2018-May-05 02:59N 14°28' W 060°52'0 0.0
2018-May-05 02:29N 14°28' W 060°52'0 0.0
2018-May-05 01:59N 14°28' W 060°52'0 0.0
2018-May-05 01:26N 14°28' W 060°52'0 0.0
2018-May-05 00:59N 14°28' W 060°52'0 0.0
2018-May-05 00:29N 14°28' W 060°52'0 0.0
2018-May-04 23:59N 14°28' W 060°52'  
Track history (hours):
 
Tides and Currents Weather Stations Pressure Air Temp Water Temp Dewpoint Dewpoint Depression Visibility Wind Speed Wind Dir Waves Ship Positions

Vermoegen Hamburg

Last reported at 2018-May-09 21:26 UTC. Time now 2018-Jun-19 15:45 UTC.
Position N 17°38' W 061°43'.
Warning: this ship's position is 40 days out of date.

Length 16 m.

Type: Sailing vessel. MMSI: 211140670.

Date/timePositionNaut miles runAvg speedWind from/ knotsBaromVisibWave heightAir tempDewpointWater temp
2018-May-09 21:26N 17°38' W 061°43'4 9.4
2018-May-09 21:00N 17°34' W 061°42'4 8.2
2018-May-09 20:30N 17°29' W 061°42'5 9.5
2018-May-09 20:00N 17°25' W 061°42'5 9.5
2018-May-09 19:29N 17°20' W 061°41'5 9.3
2018-May-09 19:00N 17°15' W 061°41'5 9.5
2018-May-09 18:29N 17°11' W 061°40'5 9.5
2018-May-09 17:58N 17°06' W 061°39'4 8.1
2018-May-09 17:30N 17°02' W 061°40'3 5.6
2018-May-09 17:00N 17°00' W 061°42'3 5.7
2018-May-09 16:30N 16°59' W 061°45'1 1.4
2018-May-09 16:00N 16°60' W 061°46'1 1.5
2018-May-09 15:30N 16°59' W 061°45'1 2.3
2018-May-09 15:00N 17°00' W 061°46'0 0.2
2018-May-09 14:30N 17°00' W 061°46'0 0.0
2018-May-09 14:00N 17°00' W 061°46'0 0.0
2018-May-09 13:30N 17°00' W 061°46'0 0.0
2018-May-09 13:00N 17°00' W 061°46'0 0.0
2018-May-09 12:28N 17°00' W 061°46'0 0.0
2018-May-09 11:58N 17°00' W 061°46'0 0.0
2018-May-09 11:28N 17°00' W 061°46'0 0.0
2018-May-09 10:58N 17°00' W 061°46'0 0.0
2018-May-09 10:28N 17°00' W 061°46'0 0.0
2018-May-09 09:58N 17°00' W 061°46'0 0.0
2018-May-09 09:28N 17°00' W 061°46'0 0.0
2018-May-09 08:58N 17°00' W 061°46'0 0.0
2018-May-09 08:28N 17°00' W 061°46'0 0.0
2018-May-09 08:00N 17°00' W 061°46'0 0.0
2018-May-09 07:30N 17°00' W 061°46'0 0.0
2018-May-09 07:00N 17°00' W 061°46'0 0.0
2018-May-09 06:30N 17°00' W 061°46'0 0.0
2018-May-09 06:00N 17°00' W 061°46'0 0.0
2018-May-09 05:30N 17°00' W 061°46'0 0.0
2018-May-09 05:00N 17°00' W 061°46'0 0.0
2018-May-09 04:30N 17°00' W 061°46'0 0.0
2018-May-09 04:00N 17°00' W 061°46'0 0.0
2018-May-09 03:30N 17°00' W 061°46'0 0.0
2018-May-09 03:00N 17°00' W 061°46'0 0.0
2018-May-09 02:30N 17°00' W 061°46'0 0.0
2018-May-09 02:00N 17°00' W 061°46'0 0.0
2018-May-09 01:30N 17°00' W 061°46'0 0.0
2018-May-09 01:00N 17°00' W 061°46'0 0.0
2018-May-09 00:30N 17°00' W 061°46'0 0.0
2018-May-09 00:00N 17°00' W 061°46'0 0.0
2018-May-08 23:30N 17°00' W 061°46'0 0.0
2018-May-08 23:00N 17°00' W 061°46'0 0.0
2018-May-08 22:30N 17°00' W 061°46'0 0.0
2018-May-08 22:00N 17°00' W 061°46'0 0.0
2018-May-08 21:30N 17°00' W 061°46'0 0.0
2018-May-08 21:00N 17°00' W 061°46'0 0.0
2018-May-08 20:30N 17°00' W 061°46'0 0.0
2018-May-08 20:00N 17°00' W 061°46'0 0.0
2018-May-08 19:30N 17°00' W 061°46'0 0.0
2018-May-08 19:00N 17°00' W 061°46'0 0.0
2018-May-08 18:30N 17°00' W 061°46'0 0.0
2018-May-08 18:00N 17°00' W 061°46'0 0.0
2018-May-08 17:30N 17°00' W 061°46'0 0.0
2018-May-08 17:00N 17°00' W 061°46'0 0.0
2018-May-08 16:28N 17°00' W 061°46'0 0.0
2018-May-08 15:58N 17°00' W 061°46'0 0.0
2018-May-08 15:30N 17°00' W 061°46'0 0.0
2018-May-08 14:58N 17°00' W 061°46'0 0.0
2018-May-08 00:23N 17°00' W 061°46'0 0.0
2018-May-07 23:59N 17°00' W 061°46'0 0.2
2018-May-07 23:29N 17°01' W 061°46'1 2.2
2018-May-07 23:00N 16°59' W 061°46'5 9.4
2018-May-07 22:30N 16°55' W 061°47'5 9.2
2018-May-07 22:00N 16°50' W 061°48'5 9.8
2018-May-07 21:30N 16°46' W 061°49'5 9.7
2018-May-07 21:00N 16°41' W 061°51'5 9.7
2018-May-07 20:30N 16°36' W 061°51'510.0
2018-May-07 19:58N 16°31' W 061°52'4 8.3
2018-May-07 19:30N 16°27' W 061°52'130 5.4
2018-May-06 19:37N 14°27' W 061°01'1 6.6
2018-May-06 19:28N 14°27' W 061°00'3 5.9
2018-May-06 18:59N 14°27' W 060°57'3 4.6
2018-May-06 18:25N 14°27' W 060°55'0 0.6
2018-May-06 17:57N 14°27' W 060°54'3 3.1
2018-May-06 17:05N 14°28' W 060°52'0 0.0
2018-May-06 15:56N 14°28' W 060°52'0 0.0
2018-May-05 20:54N 14°28' W 060°52'0 0.0
2018-May-05 20:30N 14°28' W 060°52'0 0.0
2018-May-05 20:00N 14°28' W 060°52'0 0.0
2018-May-05 19:30N 14°28' W 060°52'0 0.0
2018-May-05 19:00N 14°28' W 060°52'0 0.0
2018-May-05 18:30N 14°28' W 060°52'0 0.0
2018-May-05 18:00N 14°28' W 060°52'0 0.2
2018-May-05 17:30N 14°28' W 060°52'0 0.1
2018-May-05 16:58N 14°28' W 060°52'0 0.0
2018-May-05 16:28N 14°28' W 060°52'0 0.0
2018-May-05 15:58N 14°28' W 060°52'0 0.0
2018-May-05 15:30N 14°28' W 060°52'0 0.0
2018-May-05 15:00N 14°28' W 060°52'0 0.0
2018-May-05 14:30N 14°28' W 060°52'0 0.0
2018-May-05 14:00N 14°28' W 060°52'0 0.0
2018-May-05 13:30N 14°28' W 060°52'0 0.0
2018-May-05 13:00N 14°28' W 060°52'0 0.0
2018-May-05 12:30N 14°28' W 060°52'0 0.0
2018-May-05 11:59N 14°28' W 060°52'0 0.0
2018-May-05 11:29N 14°28' W 060°52'0 0.0
2018-May-05 10:59N 14°28' W 060°52'0 0.0
2018-May-05 10:29N 14°28' W 060°52'0 0.0
2018-May-05 09:59N 14°28' W 060°52'0 0.0
2018-May-05 09:29N 14°28' W 060°52'0 0.0
2018-May-05 08:59N 14°28' W 060°52'0 0.0
2018-May-05 08:29N 14°28' W 060°52'0 0.0
2018-May-05 07:59N 14°28' W 060°52'0 0.0
2018-May-05 07:29N 14°28' W 060°52'0 0.0
2018-May-05 06:59N 14°28' W 060°52'0 0.0
2018-May-05 06:29N 14°28' W 060°52'0 0.0
2018-May-05 05:59N 14°28' W 060°52'0 0.0
2018-May-05 05:29N 14°28' W 060°52'0 0.0
2018-May-05 04:59N 14°28' W 060°52'0 0.0
2018-May-05 04:29N 14°28' W 060°52'0 0.0
2018-May-05 03:59N 14°28' W 060°52'0 0.0
2018-May-05 03:29N 14°28' W 060°52'0 0.0
2018-May-05 02:59N 14°28' W 060°52'0 0.0
2018-May-05 02:29N 14°28' W 060°52'0 0.0
2018-May-05 01:59N 14°28' W 060°52'0 0.0
2018-May-05 01:26N 14°28' W 060°52'0 0.0
2018-May-05 00:59N 14°28' W 060°52'0 0.0
2018-May-05 00:29N 14°28' W 060°52'0 0.0
2018-May-04 23:59N 14°28' W 060°52'  

Dump ship's entire track history